createdAt,value
2023-04-02T05:01:34.025Z,3.35
2023-04-02T05:06:56.887Z,3.92
2023-04-02T05:09:34.262Z,3.20
2023-04-02T05:12:33.514Z,3.30
2023-04-02T05:15:14.339Z,3.00
2023-04-02T05:17:52.205Z,3.13
2023-04-02T05:20:31.703Z,3.60
2023-04-02T05:23:12.021Z,3.40
2023-04-02T05:25:52.154Z,3.30
2023-04-02T05:28:32.572Z,3.10
2023-04-02T05:31:05.833Z,3.55
2023-04-02T05:33:36.813Z,3.78
2023-04-02T05:36:12.945Z,3.38
2023-04-02T05:38:47.920Z,3.53
2023-04-02T05:41:47.502Z,2.95
2023-04-02T05:44:33.912Z,3.47
2023-04-02T05:47:24.817Z,3.20
2023-04-02T05:50:13.742Z,3.33
2023-04-02T05:52:50.344Z,3.63
2023-04-02T05:55:17.925Z,2.97
2023-04-02T05:58:01.182Z,2.90
2023-04-02T06:00:38.074Z,2.58
2023-04-02T06:03:34.992Z,3.30
2023-04-02T06:06:14.260Z,4.43
2023-04-02T06:08:49.071Z,2.97
2023-04-02T06:14:36.233Z,3.00
2023-04-02T06:20:22.029Z,2.63
2023-04-02T06:23:36.963Z,2.88
2023-04-02T06:26:18.773Z,2.63
2023-04-02T06:29:07.397Z,2.17
2023-04-02T06:31:36.944Z,2.33
2023-04-02T06:34:14.242Z,2.50
2023-04-02T06:36:44.775Z,2.30
2023-04-02T06:39:19.743Z,2.17
2023-04-02T06:42:10.402Z,2.58
2023-04-02T06:45:01.675Z,2.42
2023-04-02T06:47:47.458Z,2.45
2023-04-02T06:50:27.161Z,2.13
2023-04-02T06:53:02.247Z,2.53
2023-04-02T06:55:39.954Z,2.05
2023-04-02T06:58:07.338Z,2.13
2023-04-02T07:00:48.657Z,2.30
2023-04-02T07:03:29.459Z,2.03
2023-04-02T07:06:02.135Z,1.98
2023-04-02T07:08:30.397Z,1.90
2023-04-02T07:10:57.198Z,1.70
2023-04-02T07:13:25.627Z,1.50
2023-04-02T07:15:55.046Z,2.10
2023-04-02T07:18:31.051Z,2.80
2023-04-02T07:21:00.198Z,2.67
2023-04-02T07:23:28.098Z,2.67
2023-04-02T07:25:56.093Z,2.60
2023-04-02T07:28:23.627Z,2.28
2023-04-02T07:30:51.492Z,3.20
2023-04-02T07:33:22.060Z,2.22
2023-04-02T07:35:49.708Z,2.30
2023-04-02T07:38:17.020Z,2.60
2023-04-02T07:40:43.739Z,2.30
2023-04-02T07:43:11.457Z,1.92
2023-04-02T07:45:38.419Z,1.75
2023-04-02T07:48:07.561Z,2.30
2023-04-02T07:50:34.563Z,1.93
2023-04-02T07:53:01.879Z,2.45
2023-04-02T07:55:28.949Z,2.25
2023-04-02T07:57:58.751Z,1.98
2023-04-02T08:00:26.660Z,2.58
2023-04-02T08:02:53.964Z,2.05
2023-04-02T08:05:20.839Z,2.28
2023-04-02T08:07:56.297Z,2.63
2023-04-02T08:10:23.657Z,2.13
2023-04-02T08:12:51.313Z,2.95
2023-04-02T08:15:18.639Z,2.70
2023-04-02T08:17:46.782Z,2.20
2023-04-02T08:20:19.836Z,1.92
2023-04-02T08:22:48.146Z,2.17
2023-04-02T08:25:15.340Z,2.03
2023-04-02T08:27:42.959Z,1.80
2023-04-02T08:33:04.640Z,2.15
2023-04-02T08:35:31.318Z,2.22
2023-04-02T08:37:58.922Z,1.50
2023-04-02T08:40:38.596Z,2.17
2023-04-02T08:43:23.727Z,1.60
2023-04-02T08:46:12.154Z,1.70
2023-04-02T08:48:43.377Z,1.70
2023-04-02T08:51:23.422Z,1.80
2023-04-02T08:53:54.357Z,2.20
2023-04-02T08:56:56.250Z,1.75
2023-04-02T08:59:35.767Z,2.50
2023-04-02T09:02:05.894Z,2.05
2023-04-02T09:04:33.927Z,1.63
2023-04-02T09:07:00.943Z,1.70
2023-04-02T09:09:28.372Z,1.33
2023-04-02T09:12:02.925Z,1.30
2023-04-02T09:14:46.338Z,3.08
2023-04-02T09:17:21.020Z,2.00
2023-04-02T09:20:01.898Z,1.75
2023-04-02T09:22:31.967Z,1.75
2023-04-02T09:25:04.750Z,1.83
2023-04-02T09:27:35.781Z,1.40
2023-04-02T09:30:13.109Z,2.03
2023-04-02T09:32:54.999Z,2.28
2023-04-02T09:35:26.872Z,1.45
2023-04-02T09:38:31.861Z,1.80
2023-04-02T09:41:06.793Z,1.38
2023-04-02T09:43:40.245Z,1.73
2023-04-02T09:46:18.754Z,2.00
2023-04-02T09:48:53.813Z,2.25
2023-04-02T09:51:23.999Z,1.85
2023-04-02T09:54:07.101Z,2.47
2023-04-02T09:56:39.051Z,1.98
2023-04-02T09:59:07.517Z,1.52
2023-04-02T10:01:38.752Z,1.63
2023-04-02T10:04:27.244Z,2.38
2023-04-02T10:06:57.851Z,2.05
2023-04-02T10:09:30.963Z,1.77
2023-04-02T10:11:59.715Z,1.90
2023-04-02T10:14:40.632Z,3.40
2023-04-02T10:17:21.970Z,2.17
2023-04-02T10:19:55.125Z,2.22
2023-04-02T10:22:23.235Z,1.70
2023-04-02T10:24:51.537Z,1.75
2023-04-02T10:27:38.108Z,1.77
2023-04-02T10:30:29.423Z,1.48
2023-04-02T10:33:03.379Z,1.92
2023-04-02T10:35:38.568Z,1.95
2023-04-02T10:38:31.005Z,2.03
2023-04-02T10:40:58.146Z,2.42
2023-04-02T10:43:37.974Z,1.92
2023-04-02T10:46:13.601Z,2.80
2023-04-02T10:48:43.161Z,1.90
2023-04-02T10:51:16.171Z,1.63
2023-04-02T10:54:04.769Z,1.40
2023-04-02T10:56:41.021Z,2.17
2023-04-02T10:59:26.243Z,2.20
2023-04-02T11:01:57.845Z,2.17
2023-04-02T11:04:44.095Z,2.33
2023-04-02T11:07:23.030Z,2.10
2023-04-02T11:09:53.467Z,1.80
2023-04-02T11:12:41.424Z,2.00
2023-04-02T11:17:56.766Z,3.08
2023-04-02T11:21:01.181Z,2.30
2023-04-02T11:23:34.479Z,1.80
2023-04-02T11:26:49.121Z,1.52
2023-04-02T11:29:21.569Z,2.13
2023-04-02T11:31:55.190Z,2.08
2023-04-02T11:34:41.587Z,1.52
2023-04-02T11:37:11.729Z,2.15
2023-04-02T11:40:08.371Z,2.20
2023-04-02T11:42:39.241Z,1.45
2023-04-02T11:45:25.250Z,1.85
2023-04-02T11:51:01.760Z,1.55
2023-04-02T11:53:35.480Z,1.42
2023-04-02T11:56:18.529Z,1.50
2023-04-02T11:59:05.520Z,1.80
2023-04-02T12:04:53.321Z,1.85
2023-04-02T12:07:35.720Z,2.10
2023-04-02T12:19:16.612Z,1.40
2023-04-02T12:27:29.758Z,1.58
2023-04-02T12:32:40.965Z,1.48
2023-04-02T12:35:33.546Z,1.50
2023-04-02T12:38:01.009Z,1.88
2023-04-02T12:40:28.749Z,1.45
2023-04-02T12:42:55.427Z,1.45
2023-04-02T12:45:29.880Z,2.00
2023-04-02T12:47:58.267Z,1.50
2023-04-02T12:50:25.731Z,1.60
2023-04-02T12:52:54.895Z,1.70
2023-04-02T12:55:27.197Z,1.52
2023-04-02T12:57:58.829Z,1.42
2023-04-02T13:00:26.037Z,1.90
2023-04-02T13:03:19.726Z,1.90
2023-04-02T13:05:51.083Z,2.20
2023-04-02T13:08:28.339Z,1.33
2023-04-02T13:11:00.797Z,1.42
2023-04-02T13:13:33.188Z,1.50
2023-04-02T13:16:02.584Z,1.55
2023-04-02T13:18:32.168Z,2.25
2023-04-02T13:21:17.585Z,2.22
2023-04-02T13:23:46.321Z,2.35
2023-04-02T13:26:21.859Z,2.20
2023-04-02T13:29:04.979Z,3.20
2023-04-02T13:31:33.058Z,3.22
2023-04-02T13:34:00.175Z,2.30
2023-04-02T13:36:29.209Z,3.08
2023-04-02T13:38:57.106Z,1.55
2023-04-02T13:41:28.825Z,1.88
2023-04-02T13:44:00.299Z,2.38
2023-04-02T13:46:31.100Z,1.73
2023-04-02T13:48:59.206Z,1.55
2023-04-02T13:51:44.401Z,2.20
2023-04-02T13:54:35.198Z,1.40
2023-04-02T13:57:01.882Z,1.77
2023-04-02T13:59:29.216Z,1.67
2023-04-02T14:02:05.559Z,1.88
2023-04-02T14:04:42.557Z,1.85
2023-04-02T14:07:21.689Z,2.28
2023-04-02T14:10:02.336Z,2.65
2023-04-02T14:12:41.545Z,1.92
2023-04-02T14:15:19.511Z,1.80
2023-04-02T14:17:50.188Z,1.60
2023-04-02T14:20:44.605Z,2.10
2023-04-02T14:23:33.846Z,1.75
2023-04-02T14:26:32.015Z,1.98
2023-04-02T14:29:16.517Z,1.65
2023-04-02T14:31:54.325Z,1.67
2023-04-02T14:34:39.874Z,1.52
2023-04-02T14:37:27.014Z,2.22
2023-04-02T14:40:16.588Z,1.58
2023-04-02T14:43:03.950Z,1.75
2023-04-02T14:45:49.166Z,1.92
2023-04-02T14:48:47.789Z,1.98
2023-04-02T14:51:17.097Z,1.67
2023-04-02T14:53:58.866Z,2.38
2023-04-02T14:56:26.582Z,2.22
2023-04-02T14:59:18.773Z,1.77
2023-04-02T15:01:50.171Z,1.85
2023-04-02T15:05:07.990Z,1.90
2023-04-02T15:07:41.828Z,1.83
2023-04-02T15:10:23.901Z,1.33
2023-04-02T15:12:53.812Z,1.95
2023-04-02T15:15:39.389Z,1.83
2023-04-02T15:18:16.823Z,2.90
2023-04-02T15:21:08.155Z,1.48
2023-04-02T15:23:35.789Z,1.63
2023-04-02T15:26:21.763Z,1.60
2023-04-02T15:28:57.624Z,1.45
2023-04-02T15:31:28.076Z,1.67
2023-04-02T15:34:25.693Z,1.58
2023-04-02T15:36:58.110Z,1.52
2023-04-02T15:39:39.257Z,1.40
2023-04-02T15:42:17.942Z,1.60
2023-04-02T15:44:59.189Z,1.17
2023-04-02T15:47:37.381Z,1.20
2023-04-02T15:50:21.222Z,1.67
2023-04-02T15:52:48.393Z,2.08
2023-04-02T15:55:48.789Z,2.00
2023-04-02T15:58:35.798Z,1.95
2023-04-02T16:01:25.745Z,1.17
2023-04-02T16:04:11.960Z,1.10
2023-04-02T16:07:01.825Z,1.52
2023-04-02T16:09:42.138Z,2.10
2023-04-02T16:12:16.080Z,1.38
2023-04-02T16:14:45.924Z,1.60
2023-04-02T16:17:25.612Z,1.60
2023-04-02T16:23:01.118Z,1.08
2023-04-02T16:25:34.353Z,1.17
2023-04-02T16:28:24.259Z,1.05
2023-04-02T16:31:19.564Z,1.27
2023-04-02T16:33:55.769Z,1.10
2023-04-02T16:36:39.640Z,1.70
2023-04-02T16:39:16.499Z,1.67
2023-04-02T16:42:19.037Z,1.17
2023-04-02T16:45:11.621Z,1.08
2023-04-02T16:47:47.957Z,1.05
2023-04-02T16:50:49.436Z,1.15
2023-04-02T16:53:31.519Z,1.00
2023-04-02T16:55:58.385Z,2.63
2023-04-02T16:58:41.219Z,1.25
2023-04-02T17:01:33.255Z,1.45
2023-04-02T17:03:59.823Z,1.20
2023-04-02T17:06:43.466Z,1.67
2023-04-02T17:09:18.798Z,1.20
2023-04-02T17:11:59.277Z,1.65
2023-04-02T17:14:42.192Z,1.10
2023-04-02T17:17:14.957Z,1.27
2023-04-02T17:19:44.369Z,1.98
2023-04-02T17:25:03.076Z,2.17
2023-04-02T17:27:35.698Z,1.88
2023-04-02T17:30:12.927Z,0.98
2023-04-02T17:32:40.221Z,1.23
2023-04-02T17:35:18.766Z,1.10
2023-04-02T17:37:57.064Z,1.38
2023-04-02T17:40:52.007Z,1.23
2023-04-02T17:43:46.336Z,0.88
2023-04-02T17:46:31.622Z,1.55
2023-04-02T17:49:16.906Z,1.15
2023-04-02T17:51:55.535Z,1.33
2023-04-02T17:54:38.170Z,1.30
2023-04-02T17:57:40.594Z,1.08
2023-04-02T18:00:13.356Z,0.98
2023-04-02T18:02:53.038Z,0.80
2023-04-02T18:05:45.949Z,1.10
2023-04-02T18:08:32.820Z,1.05
2023-04-02T18:11:24.668Z,1.10
2023-04-02T18:13:58.720Z,0.85
2023-04-02T18:16:42.078Z,1.13
2023-04-02T18:19:16.063Z,1.67
2023-04-02T18:22:01.532Z,1.38
2023-04-02T18:24:46.821Z,1.30
2023-04-02T18:27:31.104Z,1.17
2023-04-02T18:30:31.864Z,0.80
2023-04-02T18:33:35.824Z,0.90
2023-04-02T18:36:29.030Z,1.10
2023-04-02T18:39:06.335Z,1.02
2023-04-02T18:41:39.312Z,1.00
2023-04-02T18:44:31.335Z,1.10
2023-04-02T18:47:15.052Z,0.90
2023-04-02T18:49:50.255Z,1.40
2023-04-02T18:52:18.678Z,1.40
2023-04-02T18:55:02.381Z,1.40
2023-04-02T18:57:33.933Z,1.63
2023-04-02T19:00:15.621Z,1.40
2023-04-02T19:03:07.225Z,1.23
2023-04-02T19:06:16.380Z,1.20
2023-04-02T19:08:48.438Z,1.58
2023-04-02T19:11:28.677Z,1.88
2023-04-02T19:13:58.549Z,1.38
2023-04-02T19:16:50.619Z,1.45
2023-04-02T19:19:25.385Z,1.70
2023-04-02T19:21:55.654Z,1.40
2023-04-02T19:24:41.277Z,1.23
2023-04-02T19:27:32.568Z,1.20
2023-04-02T19:30:31.968Z,1.10
2023-04-02T19:36:02.190Z,1.40
2023-04-02T19:38:51.630Z,2.00
2023-04-02T19:41:39.730Z,1.83
2023-04-02T19:44:13.041Z,1.65
2023-04-02T19:46:41.467Z,1.48
2023-04-02T19:49:12.541Z,1.90
2023-04-02T19:51:39.430Z,1.75
2023-04-02T19:54:06.634Z,1.85
2023-04-02T19:56:33.441Z,1.67
2023-04-02T19:59:07.826Z,2.17
2023-04-02T20:01:44.133Z,1.70
2023-04-02T20:04:10.931Z,1.92
2023-04-02T20:06:37.925Z,1.38
2023-04-02T20:09:05.137Z,1.20
2023-04-02T20:11:31.690Z,1.30
2023-04-02T20:13:58.929Z,1.38
2023-04-02T20:16:25.715Z,1.20
2023-04-02T20:18:53.139Z,1.40
2023-04-02T20:21:19.736Z,1.50
2023-04-02T20:23:46.995Z,1.27
2023-04-02T20:26:13.613Z,1.33
2023-04-02T20:28:40.881Z,2.00
